Limon, CO

6:41 PM MST on February 26, 2015 (GMT -0700)
Limon, CO | Change Station
CLOSE
Current Station
Personal Weather Station
Location: Limon, CO
Elevation: 5361 ft
Nearby Weather Stations

Elev 5361 ft 39.27 °N, 103.68 °W | Updated 1 minute ago

Light Snow
Light Snow Mist
12.5 °F
Feels Like 6 °F
N
4.0
Wind Variable Wind from South
Gusts 9.0 mph

Today
High -- | Low -- °F
--% Chance of Precip.
Yesterday
High -- | Low -- °F
Precip. -- in
6:32 AM 5:43 PM
Waxing Gibbous, 64% visible
Pressure 30.15 in
Visibility 2.0 miles
Clouds Overcast 2200 ft
Windchill 6 °F
Dew Point 10 °F
Humidity 89%
Rainfall 0.00 in
Snow Depth Not available.
UV 0 out of 12
Pollen .60 out of 12
Air Quality Not available.
Flu Activity Not available.
SPECI KLIC 270106Z AUTO 16011KT 2SM -SN BR OVC022 M12/M13 A3015 RMK AO2 P0000 T11171133

More Conditions Fewer Conditions

Pressure 30.15 in
Visibility 2.0 miles
Clouds Overcast 2200 ft
Windchill 6 °F
Dew Point 10 °F
Humidity 89%
Rainfall 0.00 in
Snow Depth Not available.
UV 0 out of 12
Pollen .60 out of 12
Air Quality Not available.
Flu Activity Not available.
SPECI KLIC 270106Z AUTO 16011KT 2SM -SN BR OVC022 M12/M13 A3015 RMK AO2 P0000 T11171133

More Conditions Fewer Conditions

Nowcast | as of 4:56 PM MST on February 26, 2015

Areas of light snow will occur over eastern Elbert and Lincoln counties this evening. Snowfall rates from one tenth to one quarter inch per hour can be expected. A few areas over northern Lincoln and Elbert counties may see quick heavier bursts of snowfall rates closer to one inch per hour.

×

10-Day Weather Forecast

Almanac

Astronomy

Feb. 26, 2015 Rise Set
Actual Time
Civil Twilight
Nautical Twilight
Astronomical Twilight
Moon
Length of Visible Light
Length of Day
Tomorrow will be .
, % of the Moon is Illuminated

Today's Extremes

State Highs State Lows

Community

WunderPhotos

Upload Photos

1,800,553 photos uploaded!

WunderBlogs® & News

Nearby

Air Quality

  Air Quality AQ Index Pollutant
Not available.

Snow Depth

Station Depth Elevation

Earthquake Activity

City Distance Mag. Time & Date
Minimum magnitude displayed is 2.5.

Coastal Water Temperatures

Place Temperature

Nearby Weather Stations